sensor_id;sensor_type;location;lat;lon;timestamp;P1;durP1;ratioP1;P2;durP2;ratioP2
32038;SDS011;18549;42.286;22.688;2023-05-18T00:02:04;9.10;;;2.33;;
32038;SDS011;18549;42.286;22.688;2023-05-18T00:04:33;3.67;;;2.43;;
32038;SDS011;18549;42.286;22.688;2023-05-18T00:07:00;7.23;;;2.40;;
32038;SDS011;18549;42.286;22.688;2023-05-18T00:09:29;7.17;;;2.33;;
32038;SDS011;18549;42.286;22.688;2023-05-18T00:11:57;9.03;;;2.13;;
32038;SDS011;18549;42.286;22.688;2023-05-18T00:14:24;4.70;;;1.67;;
32038;SDS011;18549;42.286;22.688;2023-05-18T00:16:51;5.23;;;2.10;;
32038;SDS011;18549;42.286;22.688;2023-05-18T00:19:18;4.10;;;2.22;;
32038;SDS011;18549;42.286;22.688;2023-05-18T00:21:47;2.58;;;1.67;;
32038;SDS011;18549;42.286;22.688;2023-05-18T00:24:14;6.47;;;2.37;;
32038;SDS011;18549;42.286;22.688;2023-05-18T00:26:42;5.10;;;1.75;;
32038;SDS011;18549;42.286;22.688;2023-05-18T00:29:09;5.30;;;2.20;;
32038;SDS011;18549;42.286;22.688;2023-05-18T00:31:36;6.97;;;3.00;;
32038;SDS011;18549;42.286;22.688;2023-05-18T00:34:03;8.27;;;2.42;;
32038;SDS011;18549;42.286;22.688;2023-05-18T00:36:31;7.67;;;4.10;;
32038;SDS011;18549;42.286;22.688;2023-05-18T00:38:59;11.57;;;3.67;;
32038;SDS011;18549;42.286;22.688;2023-05-18T00:41:26;14.13;;;3.40;;
32038;SDS011;18549;42.286;22.688;2023-05-18T00:43:53;7.82;;;2.03;;
32038;SDS011;18549;42.286;22.688;2023-05-18T00:46:20;6.18;;;2.03;;
32038;SDS011;18549;42.286;22.688;2023-05-18T00:48:48;6.00;;;2.60;;
32038;SDS011;18549;42.286;22.688;2023-05-18T00:51:16;5.97;;;2.30;;
32038;SDS011;18549;42.286;22.688;2023-05-18T00:53:43;7.87;;;1.90;;
32038;SDS011;18549;42.286;22.688;2023-05-18T00:56:12;6.57;;;2.75;;
32038;SDS011;18549;42.286;22.688;2023-05-18T00:58:40;12.43;;;2.80;;
32038;SDS011;18549;42.286;22.688;2023-05-18T01:01:07;6.20;;;2.95;;
32038;SDS011;18549;42.286;22.688;2023-05-18T01:03:34;6.97;;;2.70;;
32038;SDS011;18549;42.286;22.688;2023-05-18T01:06:03;8.43;;;2.47;;
32038;SDS011;18549;42.286;22.688;2023-05-18T01:08:30;5.95;;;1.98;;
32038;SDS011;18549;42.286;22.688;2023-05-18T01:10:59;5.32;;;2.05;;
32038;SDS011;18549;42.286;22.688;2023-05-18T01:13:37;4.80;;;1.80;;
32038;SDS011;18549;42.286;22.688;2023-05-18T01:16:08;7.47;;;1.93;;
32038;SDS011;18549;42.286;22.688;2023-05-18T01:18:40;6.67;;;2.60;;
32038;SDS011;18549;42.286;22.688;2023-05-18T01:21:16;3.47;;;2.10;;
32038;SDS011;18549;42.286;22.688;2023-05-18T01:23:59;7.77;;;2.27;;
32038;SDS011;18549;42.286;22.688;2023-05-18T01:26:35;8.73;;;1.92;;
32038;SDS011;18549;42.286;22.688;2023-05-18T01:29:09;5.68;;;1.98;;
32038;SDS011;18549;42.286;22.688;2023-05-18T01:31:39;5.17;;;2.17;;
32038;SDS011;18549;42.286;22.688;2023-05-18T01:34:06;3.78;;;2.20;;
32038;SDS011;18549;42.286;22.688;2023-05-18T01:36:33;13.20;;;2.80;;
32038;SDS011;18549;42.286;22.688;2023-05-18T01:38:59;9.67;;;1.87;;
32038;SDS011;18549;42.286;22.688;2023-05-18T01:41:27;5.50;;;2.22;;
32038;SDS011;18549;42.286;22.688;2023-05-18T01:44:05;5.32;;;2.37;;
32038;SDS011;18549;42.286;22.688;2023-05-18T01:46:39;4.55;;;2.42;;
32038;SDS011;18549;42.286;22.688;2023-05-18T01:49:12;6.23;;;2.37;;
32038;SDS011;18549;42.286;22.688;2023-05-18T01:51:44;7.05;;;2.35;;
32038;SDS011;18549;42.286;22.688;2023-05-18T01:54:12;3.55;;;2.00;;
32038;SDS011;18549;42.286;22.688;2023-05-18T01:56:43;4.97;;;2.67;;
32038;SDS011;18549;42.286;22.688;2023-05-18T01:59:12;6.55;;;2.17;;
32038;SDS011;18549;42.286;22.688;2023-05-18T02:01:40;3.43;;;1.43;;
32038;SDS011;18549;42.286;22.688;2023-05-18T02:04:07;3.93;;;1.90;;
32038;SDS011;18549;42.286;22.688;2023-05-18T02:06:34;6.62;;;2.75;;
32038;SDS011;18549;42.286;22.688;2023-05-18T02:09:02;2.20;;;1.63;;
32038;SDS011;18549;42.286;22.688;2023-05-18T02:11:29;3.50;;;1.60;;
32038;SDS011;18549;42.286;22.688;2023-05-18T02:13:56;7.00;;;2.08;;
32038;SDS011;18549;42.286;22.688;2023-05-18T02:16:24;3.50;;;1.87;;
32038;SDS011;18549;42.286;22.688;2023-05-18T02:18:51;3.62;;;2.00;;
32038;SDS011;18549;42.286;22.688;2023-05-18T02:21:18;6.43;;;2.85;;
32038;SDS011;18549;42.286;22.688;2023-05-18T02:23:46;6.03;;;2.83;;
32038;SDS011;18549;42.286;22.688;2023-05-18T02:26:12;9.35;;;3.15;;
32038;SDS011;18549;42.286;22.688;2023-05-18T02:28:40;10.88;;;3.10;;
32038;SDS011;18549;42.286;22.688;2023-05-18T02:31:07;4.28;;;2.35;;
32038;SDS011;18549;42.286;22.688;2023-05-18T02:33:37;8.50;;;3.33;;
32038;SDS011;18549;42.286;22.688;2023-05-18T02:36:06;5.87;;;2.70;;
32038;SDS011;18549;42.286;22.688;2023-05-18T02:38:34;6.00;;;2.40;;
32038;SDS011;18549;42.286;22.688;2023-05-18T02:41:02;3.30;;;1.65;;
32038;SDS011;18549;42.286;22.688;2023-05-18T02:43:29;3.70;;;1.75;;
32038;SDS011;18549;42.286;22.688;2023-05-18T02:45:56;6.77;;;2.13;;
32038;SDS011;18549;42.286;22.688;2023-05-18T02:48:23;3.30;;;1.62;;
32038;SDS011;18549;42.286;22.688;2023-05-18T02:50:51;2.83;;;2.10;;
32038;SDS011;18549;42.286;22.688;2023-05-18T02:53:18;6.60;;;2.62;;
32038;SDS011;18549;42.286;22.688;2023-05-18T02:55:45;9.07;;;2.42;;
32038;SDS011;18549;42.286;22.688;2023-05-18T02:58:12;4.65;;;2.65;;
32038;SDS011;18549;42.286;22.688;2023-05-18T03:00:39;3.25;;;2.05;;
32038;SDS011;18549;42.286;22.688;2023-05-18T03:03:06;10.53;;;2.67;;
32038;SDS011;18549;42.286;22.688;2023-05-18T03:05:34;5.05;;;2.47;;
32038;SDS011;18549;42.286;22.688;2023-05-18T03:08:03;4.10;;;2.37;;
32038;SDS011;18549;42.286;22.688;2023-05-18T03:10:30;3.70;;;2.30;;
32038;SDS011;18549;42.286;22.688;2023-05-18T03:12:56;8.67;;;2.70;;
32038;SDS011;18549;42.286;22.688;2023-05-18T03:15:23;6.53;;;2.20;;
32038;SDS011;18549;42.286;22.688;2023-05-18T03:17:51;4.72;;;3.35;;
32038;SDS011;18549;42.286;22.688;2023-05-18T03:20:17;7.20;;;3.60;;
32038;SDS011;18549;42.286;22.688;2023-05-18T03:22:45;8.90;;;2.95;;
32038;SDS011;18549;42.286;22.688;2023-05-18T03:25:13;6.40;;;2.60;;
32038;SDS011;18549;42.286;22.688;2023-05-18T03:27:40;5.47;;;3.58;;
32038;SDS011;18549;42.286;22.688;2023-05-18T03:30:07;15.53;;;4.53;;
32038;SDS011;18549;42.286;22.688;2023-05-18T03:32:34;5.97;;;3.30;;
32038;SDS011;18549;42.286;22.688;2023-05-18T03:35:01;14.45;;;3.75;;
32038;SDS011;18549;42.286;22.688;2023-05-18T03:37:29;7.27;;;4.57;;
32038;SDS011;18549;42.286;22.688;2023-05-18T03:39:57;9.60;;;5.62;;
32038;SDS011;18549;42.286;22.688;2023-05-18T03:42:26;8.45;;;5.15;;
32038;SDS011;18549;42.286;22.688;2023-05-18T03:44:52;7.68;;;4.65;;
32038;SDS011;18549;42.286;22.688;2023-05-18T03:47:19;9.65;;;5.53;;
32038;SDS011;18549;42.286;22.688;2023-05-18T03:49:46;19.05;;;6.07;;
32038;SDS011;18549;42.286;22.688;2023-05-18T03:52:13;8.98;;;5.45;;
32038;SDS011;18549;42.286;22.688;2023-05-18T03:54:46;15.60;;;5.60;;
32038;SDS011;18549;42.286;22.688;2023-05-18T03:57:14;12.13;;;5.07;;
32038;SDS011;18549;42.286;22.688;2023-05-18T03:59:42;11.05;;;4.22;;
32038;SDS011;18549;42.286;22.688;2023-05-18T04:02:08;9.52;;;4.65;;
32038;SDS011;18549;42.286;22.688;2023-05-18T04:04:36;7.80;;;3.20;;
32038;SDS011;18549;42.286;22.688;2023-05-18T04:07:06;9.23;;;3.83;;
32038;SDS011;18549;42.286;22.688;2023-05-18T04:09:32;5.85;;;3.50;;
32038;SDS011;18549;42.286;22.688;2023-05-18T04:12:00;6.75;;;3.92;;
32038;SDS011;18549;42.286;22.688;2023-05-18T04:14:28;8.93;;;3.77;;
32038;SDS011;18549;42.286;22.688;2023-05-18T04:16:58;13.90;;;3.80;;
32038;SDS011;18549;42.286;22.688;2023-05-18T04:19:29;8.77;;;4.17;;
32038;SDS011;18549;42.286;22.688;2023-05-18T04:21:56;7.30;;;3.70;;
32038;SDS011;18549;42.286;22.688;2023-05-18T04:24:22;8.55;;;3.78;;
32038;SDS011;18549;42.286;22.688;2023-05-18T04:26:50;10.52;;;4.12;;
32038;SDS011;18549;42.286;22.688;2023-05-18T04:29:17;9.33;;;4.20;;
32038;SDS011;18549;42.286;22.688;2023-05-18T04:31:45;5.97;;;4.07;;
32038;SDS011;18549;42.286;22.688;2023-05-18T04:34:14;7.80;;;4.15;;
32038;SDS011;18549;42.286;22.688;2023-05-18T04:36:42;10.13;;;4.47;;
32038;SDS011;18549;42.286;22.688;2023-05-18T04:39:09;7.15;;;4.43;;
32038;SDS011;18549;42.286;22.688;2023-05-18T04:41:36;10.40;;;4.47;;
32038;SDS011;18549;42.286;22.688;2023-05-18T04:44:06;6.97;;;4.40;;
32038;SDS011;18549;42.286;22.688;2023-05-18T04:46:33;8.85;;;4.70;;
32038;SDS011;18549;42.286;22.688;2023-05-18T04:49:03;5.93;;;4.10;;
32038;SDS011;18549;42.286;22.688;2023-05-18T04:51:31;9.00;;;4.47;;
32038;SDS011;18549;42.286;22.688;2023-05-18T04:53:58;6.28;;;4.35;;
32038;SDS011;18549;42.286;22.688;2023-05-18T04:56:27;6.62;;;3.42;;
32038;SDS011;18549;42.286;22.688;2023-05-18T04:58:54;11.77;;;4.22;;
32038;SDS011;18549;42.286;22.688;2023-05-18T05:01:23;10.13;;;3.78;;
32038;SDS011;18549;42.286;22.688;2023-05-18T05:03:50;5.15;;;3.12;;
32038;SDS011;18549;42.286;22.688;2023-05-18T05:06:17;9.80;;;3.37;;
32038;SDS011;18549;42.286;22.688;2023-05-18T05:08:45;3.90;;;3.30;;
32038;SDS011;18549;42.286;22.688;2023-05-18T05:11:12;6.97;;;3.80;;
32038;SDS011;18549;42.286;22.688;2023-05-18T05:13:40;9.40;;;3.60;;
32038;SDS011;18549;42.286;22.688;2023-05-18T05:16:07;5.63;;;4.43;;
32038;SDS011;18549;42.286;22.688;2023-05-18T05:18:33;5.57;;;4.40;;
32038;SDS011;18549;42.286;22.688;2023-05-18T05:21:00;7.47;;;5.17;;
32038;SDS011;18549;42.286;22.688;2023-05-18T05:23:27;5.27;;;4.10;;
32038;SDS011;18549;42.286;22.688;2023-05-18T05:25:55;4.93;;;3.33;;
32038;SDS011;18549;42.286;22.688;2023-05-18T05:28:21;5.20;;;4.20;;
32038;SDS011;18549;42.286;22.688;2023-05-18T05:30:48;5.17;;;3.43;;
32038;SDS011;18549;42.286;22.688;2023-05-18T05:33:16;3.55;;;2.78;;
32038;SDS011;18549;42.286;22.688;2023-05-18T05:35:43;7.20;;;3.22;;
32038;SDS011;18549;42.286;22.688;2023-05-18T05:38:09;4.55;;;2.80;;
32038;SDS011;18549;42.286;22.688;2023-05-18T05:40:36;5.82;;;3.62;;
32038;SDS011;18549;42.286;22.688;2023-05-18T05:43:05;5.65;;;3.30;;
32038;SDS011;18549;42.286;22.688;2023-05-18T05:45:31;6.95;;;3.45;;
32038;SDS011;18549;42.286;22.688;2023-05-18T05:47:58;3.28;;;2.50;;
32038;SDS011;18549;42.286;22.688;2023-05-18T05:50:25;7.28;;;2.75;;
32038;SDS011;18549;42.286;22.688;2023-05-18T05:52:52;3.85;;;2.53;;
32038;SDS011;18549;42.286;22.688;2023-05-18T05:55:19;7.80;;;2.53;;
32038;SDS011;18549;42.286;22.688;2023-05-18T05:57:46;5.97;;;2.15;;
32038;SDS011;18549;42.286;22.688;2023-05-18T06:00:15;9.20;;;2.75;;
32038;SDS011;18549;42.286;22.688;2023-05-18T06:02:42;11.43;;;3.50;;
32038;SDS011;18549;42.286;22.688;2023-05-18T06:05:09;14.82;;;5.50;;
32038;SDS011;18549;42.286;22.688;2023-05-18T06:07:35;8.93;;;5.12;;
32038;SDS011;18549;42.286;22.688;2023-05-18T06:10:02;7.47;;;3.97;;
32038;SDS011;18549;42.286;22.688;2023-05-18T06:12:29;3.62;;;2.87;;
32038;SDS011;18549;42.286;22.688;2023-05-18T06:14:56;3.83;;;2.95;;
32038;SDS011;18549;42.286;22.688;2023-05-18T06:17:24;4.10;;;2.28;;
32038;SDS011;18549;42.286;22.688;2023-05-18T06:19:51;4.80;;;2.27;;
32038;SDS011;18549;42.286;22.688;2023-05-18T06:22:18;13.60;;;3.62;;
32038;SDS011;18549;42.286;22.688;2023-05-18T06:24:45;3.03;;;2.07;;
32038;SDS011;18549;42.286;22.688;2023-05-18T06:27:12;2.97;;;1.80;;
32038;SDS011;18549;42.286;22.688;2023-05-18T06:29:39;4.12;;;2.60;;
32038;SDS011;18549;42.286;22.688;2023-05-18T06:32:06;5.20;;;2.62;;
32038;SDS011;18549;42.286;22.688;2023-05-18T06:34:34;3.25;;;2.22;;
32038;SDS011;18549;42.286;22.688;2023-05-18T06:37:01;3.17;;;1.80;;
32038;SDS011;18549;42.286;22.688;2023-05-18T06:39:28;5.28;;;2.35;;
32038;SDS011;18549;42.286;22.688;2023-05-18T06:41:55;3.03;;;2.10;;
32038;SDS011;18549;42.286;22.688;2023-05-18T06:44:21;8.00;;;4.47;;
32038;SDS011;18549;42.286;22.688;2023-05-18T06:46:48;3.87;;;2.63;;
32038;SDS011;18549;42.286;22.688;2023-05-18T06:49:15;10.77;;;3.75;;
32038;SDS011;18549;42.286;22.688;2023-05-18T06:51:43;11.50;;;5.07;;
32038;SDS011;18549;42.286;22.688;2023-05-18T06:54:10;10.57;;;5.53;;
32038;SDS011;18549;42.286;22.688;2023-05-18T06:56:36;7.90;;;4.50;;
32038;SDS011;18549;42.286;22.688;2023-05-18T06:59:03;11.68;;;3.72;;
32038;SDS011;18549;42.286;22.688;2023-05-18T07:01:30;8.02;;;3.58;;
32038;SDS011;18549;42.286;22.688;2023-05-18T07:03:57;3.37;;;1.90;;
32038;SDS011;18549;42.286;22.688;2023-05-18T07:06:24;3.42;;;1.95;;
32038;SDS011;18549;42.286;22.688;2023-05-18T07:08:52;7.10;;;2.42;;
32038;SDS011;18549;42.286;22.688;2023-05-18T07:11:19;3.78;;;2.17;;
32038;SDS011;18549;42.286;22.688;2023-05-18T07:13:46;9.07;;;2.95;;
32038;SDS011;18549;42.286;22.688;2023-05-18T07:16:12;11.10;;;2.37;;
32038;SDS011;18549;42.286;22.688;2023-05-18T07:18:39;5.07;;;2.62;;
32038;SDS011;18549;42.286;22.688;2023-05-18T07:21:06;3.70;;;2.70;;
32038;SDS011;18549;42.286;22.688;2023-05-18T07:23:33;5.53;;;1.93;;
32038;SDS011;18549;42.286;22.688;2023-05-18T07:26:01;1.65;;;1.17;;
32038;SDS011;18549;42.286;22.688;2023-05-18T07:28:28;13.00;;;3.80;;
32038;SDS011;18549;42.286;22.688;2023-05-18T07:30:54;7.20;;;2.10;;
32038;SDS011;18549;42.286;22.688;2023-05-18T07:33:21;3.33;;;1.25;;
32038;SDS011;18549;42.286;22.688;2023-05-18T07:35:48;2.58;;;1.77;;
32038;SDS011;18549;42.286;22.688;2023-05-18T07:38:14;2.92;;;1.83;;
32038;SDS011;18549;42.286;22.688;2023-05-18T07:40:41;3.03;;;1.77;;
32038;SDS011;18549;42.286;22.688;2023-05-18T07:43:09;2.50;;;1.57;;
32038;SDS011;18549;42.286;22.688;2023-05-18T07:45:36;3.55;;;1.30;;
32038;SDS011;18549;42.286;22.688;2023-05-18T07:48:03;2.58;;;1.92;;
32038;SDS011;18549;42.286;22.688;2023-05-18T07:50:31;1.63;;;1.13;;
32038;SDS011;18549;42.286;22.688;2023-05-18T07:52:58;1.50;;;1.20;;
32038;SDS011;18549;42.286;22.688;2023-05-18T07:55:25;3.53;;;1.87;;
32038;SDS011;18549;42.286;22.688;2023-05-18T07:57:52;2.25;;;1.45;;
32038;SDS011;18549;42.286;22.688;2023-05-18T08:00:20;11.12;;;4.82;;
32038;SDS011;18549;42.286;22.688;2023-05-18T08:02:47;3.45;;;2.28;;
32038;SDS011;18549;42.286;22.688;2023-05-18T08:05:14;3.75;;;2.30;;
32038;SDS011;18549;42.286;22.688;2023-05-18T08:07:40;7.03;;;1.90;;
32038;SDS011;18549;42.286;22.688;2023-05-18T08:10:07;3.42;;;2.47;;
32038;SDS011;18549;42.286;22.688;2023-05-18T08:12:35;6.97;;;3.47;;
32038;SDS011;18549;42.286;22.688;2023-05-18T08:15:02;2.17;;;1.87;;
32038;SDS011;18549;42.286;22.688;2023-05-18T08:17:30;3.25;;;2.53;;
32038;SDS011;18549;42.286;22.688;2023-05-18T08:19:57;3.87;;;2.75;;
32038;SDS011;18549;42.286;22.688;2023-05-18T08:22:23;7.90;;;3.00;;
32038;SDS011;18549;42.286;22.688;2023-05-18T08:24:50;4.20;;;2.55;;
32038;SDS011;18549;42.286;22.688;2023-05-18T08:27:17;3.85;;;2.72;;
32038;SDS011;18549;42.286;22.688;2023-05-18T08:29:44;9.97;;;3.03;;
32038;SDS011;18549;42.286;22.688;2023-05-18T08:32:10;5.90;;;3.40;;
32038;SDS011;18549;42.286;22.688;2023-05-18T08:34:39;7.27;;;3.17;;
32038;SDS011;18549;42.286;22.688;2023-05-18T08:37:06;4.00;;;2.70;;
32038;SDS011;18549;42.286;22.688;2023-05-18T08:39:32;9.00;;;3.40;;
32038;SDS011;18549;42.286;22.688;2023-05-18T08:42:02;6.32;;;4.00;;
32038;SDS011;18549;42.286;22.688;2023-05-18T08:44:33;10.60;;;3.70;;
32038;SDS011;18549;42.286;22.688;2023-05-18T08:47:04;4.47;;;2.92;;
32038;SDS011;18549;42.286;22.688;2023-05-18T08:49:35;12.70;;;4.22;;
32038;SDS011;18549;42.286;22.688;2023-05-18T08:52:03;9.65;;;3.92;;
32038;SDS011;18549;42.286;22.688;2023-05-18T08:54:33;6.20;;;3.10;;
32038;SDS011;18549;42.286;22.688;2023-05-18T08:57:02;5.33;;;3.77;;
32038;SDS011;18549;42.286;22.688;2023-05-18T08:59:33;7.65;;;3.10;;
32038;SDS011;18549;42.286;22.688;2023-05-18T09:02:03;5.47;;;4.03;;
32038;SDS011;18549;42.286;22.688;2023-05-18T09:04:30;7.72;;;3.58;;
32038;SDS011;18549;42.286;22.688;2023-05-18T09:06:58;13.57;;;3.75;;
32038;SDS011;18549;42.286;22.688;2023-05-18T09:09:28;4.85;;;3.22;;
32038;SDS011;18549;42.286;22.688;2023-05-18T09:11:55;4.45;;;3.60;;
32038;SDS011;18549;42.286;22.688;2023-05-18T09:14:22;14.45;;;4.22;;
32038;SDS011;18549;42.286;22.688;2023-05-18T09:16:51;5.67;;;3.53;;
32038;SDS011;18549;42.286;22.688;2023-05-18T09:19:18;10.05;;;3.55;;
32038;SDS011;18549;42.286;22.688;2023-05-18T09:21:44;8.43;;;4.12;;
32038;SDS011;18549;42.286;22.688;2023-05-18T09:24:11;8.52;;;3.60;;
32038;SDS011;18549;42.286;22.688;2023-05-18T09:26:40;5.53;;;3.53;;
32038;SDS011;18549;42.286;22.688;2023-05-18T09:29:14;10.87;;;5.37;;
32038;SDS011;18549;42.286;22.688;2023-05-18T09:31:41;8.43;;;5.33;;
32038;SDS011;18549;42.286;22.688;2023-05-18T09:34:09;12.52;;;4.68;;
32038;SDS011;18549;42.286;22.688;2023-05-18T09:36:36;6.90;;;5.22;;
32038;SDS011;18549;42.286;22.688;2023-05-18T09:39:05;10.18;;;3.80;;
32038;SDS011;18549;42.286;22.688;2023-05-18T09:41:35;8.10;;;4.13;;
32038;SDS011;18549;42.286;22.688;2023-05-18T09:44:04;5.40;;;4.10;;
32038;SDS011;18549;42.286;22.688;2023-05-18T09:46:34;4.97;;;3.87;;
32038;SDS011;18549;42.286;22.688;2023-05-18T09:49:02;8.57;;;5.80;;
32038;SDS011;18549;42.286;22.688;2023-05-18T09:51:29;6.68;;;4.47;;
32038;SDS011;18549;42.286;22.688;2023-05-18T09:53:56;14.97;;;5.03;;
32038;SDS011;18549;42.286;22.688;2023-05-18T09:56:29;8.57;;;5.47;;
32038;SDS011;18549;42.286;22.688;2023-05-18T09:58:56;8.63;;;5.22;;
32038;SDS011;18549;42.286;22.688;2023-05-18T10:01:24;11.43;;;5.78;;
32038;SDS011;18549;42.286;22.688;2023-05-18T10:03:51;8.45;;;5.18;;
32038;SDS011;18549;42.286;22.688;2023-05-18T10:06:18;8.93;;;3.93;;
32038;SDS011;18549;42.286;22.688;2023-05-18T10:08:46;8.60;;;4.43;;
32038;SDS011;18549;42.286;22.688;2023-05-18T10:11:16;17.45;;;4.72;;
32038;SDS011;18549;42.286;22.688;2023-05-18T10:13:43;6.43;;;4.53;;
32038;SDS011;18549;42.286;22.688;2023-05-18T10:16:10;9.20;;;4.97;;
32038;SDS011;18549;42.286;22.688;2023-05-18T10:18:39;10.23;;;5.37;;
32038;SDS011;18549;42.286;22.688;2023-05-18T10:21:06;10.90;;;5.47;;
32038;SDS011;18549;42.286;22.688;2023-05-18T10:23:34;6.45;;;4.87;;
32038;SDS011;18549;42.286;22.688;2023-05-18T10:26:03;11.00;;;4.87;;
32038;SDS011;18549;42.286;22.688;2023-05-18T10:28:32;11.20;;;6.25;;
32038;SDS011;18549;42.286;22.688;2023-05-18T10:31:03;6.57;;;4.40;;
32038;SDS011;18549;42.286;22.688;2023-05-18T10:33:33;5.30;;;4.43;;
32038;SDS011;18549;42.286;22.688;2023-05-18T10:36:03;12.77;;;5.57;;
32038;SDS011;18549;42.286;22.688;2023-05-18T10:38:31;9.52;;;5.53;;
32038;SDS011;18549;42.286;22.688;2023-05-18T10:40:59;7.18;;;4.30;;
32038;SDS011;18549;42.286;22.688;2023-05-18T10:43:26;8.55;;;5.10;;
32038;SDS011;18549;42.286;22.688;2023-05-18T10:45:55;9.38;;;5.22;;
32038;SDS011;18549;42.286;22.688;2023-05-18T10:48:23;15.27;;;4.62;;
32038;SDS011;18549;42.286;22.688;2023-05-18T10:50:51;5.85;;;4.12;;
32038;SDS011;18549;42.286;22.688;2023-05-18T10:53:20;8.55;;;5.20;;
32038;SDS011;18549;42.286;22.688;2023-05-18T10:55:49;9.57;;;4.78;;
32038;SDS011;18549;42.286;22.688;2023-05-18T10:58:16;13.32;;;4.93;;
32038;SDS011;18549;42.286;22.688;2023-05-18T11:00:45;15.25;;;5.05;;
32038;SDS011;18549;42.286;22.688;2023-05-18T11:03:15;8.10;;;5.10;;
32038;SDS011;18549;42.286;22.688;2023-05-18T11:05:43;9.25;;;5.93;;
32038;SDS011;18549;42.286;22.688;2023-05-18T11:08:23;7.00;;;4.65;;
32038;SDS011;18549;42.286;22.688;2023-05-18T11:10:58;10.43;;;4.75;;
32038;SDS011;18549;42.286;22.688;2023-05-18T11:13:27;4.95;;;4.45;;
32038;SDS011;18549;42.286;22.688;2023-05-18T11:16:01;11.93;;;4.78;;
32038;SDS011;18549;42.286;22.688;2023-05-18T11:18:34;6.43;;;5.22;;
32038;SDS011;18549;42.286;22.688;2023-05-18T11:21:03;10.63;;;5.15;;
32038;SDS011;18549;42.286;22.688;2023-05-18T11:23:47;10.18;;;5.68;;
32038;SDS011;18549;42.286;22.688;2023-05-18T11:26:43;6.45;;;5.07;;
32038;SDS011;18549;42.286;22.688;2023-05-18T11:29:17;9.60;;;5.57;;
32038;SDS011;18549;42.286;22.688;2023-05-18T11:31:45;11.68;;;5.47;;
32038;SDS011;18549;42.286;22.688;2023-05-18T11:37:12;10.02;;;5.70;;
32038;SDS011;18549;42.286;22.688;2023-05-18T11:39:41;10.77;;;5.53;;
32038;SDS011;18549;42.286;22.688;2023-05-18T11:42:18;7.35;;;4.68;;
32038;SDS011;18549;42.286;22.688;2023-05-18T11:44:50;7.18;;;4.43;;
32038;SDS011;18549;42.286;22.688;2023-05-18T11:47:17;14.10;;;4.85;;
32038;SDS011;18549;42.286;22.688;2023-05-18T11:49:44;8.00;;;5.80;;
32038;SDS011;18549;42.286;22.688;2023-05-18T11:52:13;7.20;;;5.03;;
32038;SDS011;18549;42.286;22.688;2023-05-18T11:54:44;14.87;;;6.82;;
32038;SDS011;18549;42.286;22.688;2023-05-18T11:57:14;8.55;;;6.85;;
32038;SDS011;18549;42.286;22.688;2023-05-18T11:59:43;10.05;;;7.20;;
32038;SDS011;18549;42.286;22.688;2023-05-18T12:02:11;13.15;;;6.87;;
32038;SDS011;18549;42.286;22.688;2023-05-18T12:04:42;8.25;;;6.65;;
32038;SDS011;18549;42.286;22.688;2023-05-18T12:07:11;14.87;;;6.18;;
32038;SDS011;18549;42.286;22.688;2023-05-18T12:09:41;12.63;;;7.33;;
32038;SDS011;18549;42.286;22.688;2023-05-18T12:12:11;14.90;;;5.28;;
32038;SDS011;18549;42.286;22.688;2023-05-18T12:14:42;8.10;;;4.63;;
32038;SDS011;18549;42.286;22.688;2023-05-18T12:17:10;8.50;;;5.27;;
32038;SDS011;18549;42.286;22.688;2023-05-18T12:19:37;9.27;;;5.70;;
32038;SDS011;18549;42.286;22.688;2023-05-18T12:22:07;9.95;;;7.12;;
32038;SDS011;18549;42.286;22.688;2023-05-18T12:24:34;12.80;;;6.80;;
32038;SDS011;18549;42.286;22.688;2023-05-18T12:27:00;10.30;;;6.27;;
32038;SDS011;18549;42.286;22.688;2023-05-18T12:29:30;16.90;;;6.50;;
32038;SDS011;18549;42.286;22.688;2023-05-18T12:31:56;10.10;;;7.03;;
32038;SDS011;18549;42.286;22.688;2023-05-18T12:34:26;13.47;;;6.80;;
32038;SDS011;18549;42.286;22.688;2023-05-18T12:36:53;11.57;;;7.20;;
32038;SDS011;18549;42.286;22.688;2023-05-18T12:39:21;9.70;;;7.03;;
32038;SDS011;18549;42.286;22.688;2023-05-18T12:41:49;12.80;;;7.03;;
32038;SDS011;18549;42.286;22.688;2023-05-18T12:44:16;13.60;;;7.70;;
32038;SDS011;18549;42.286;22.688;2023-05-18T12:46:44;12.73;;;8.70;;
32038;SDS011;18549;42.286;22.688;2023-05-18T12:49:13;18.77;;;6.70;;
32038;SDS011;18549;42.286;22.688;2023-05-18T12:51:43;11.50;;;6.10;;
32038;SDS011;18549;42.286;22.688;2023-05-18T12:54:09;10.67;;;6.70;;
32038;SDS011;18549;42.286;22.688;2023-05-18T12:56:52;7.67;;;5.10;;
32038;SDS011;18549;42.286;22.688;2023-05-18T12:59:24;9.93;;;4.70;;
32038;SDS011;18549;42.286;22.688;2023-05-18T13:01:53;8.87;;;4.30;;
32038;SDS011;18549;42.286;22.688;2023-05-18T13:04:20;13.82;;;4.45;;
32038;SDS011;18549;42.286;22.688;2023-05-18T13:06:47;8.27;;;4.97;;
32038;SDS011;18549;42.286;22.688;2023-05-18T13:09:14;10.13;;;4.67;;
32038;SDS011;18549;42.286;22.688;2023-05-18T13:11:45;9.13;;;4.57;;
32038;SDS011;18549;42.286;22.688;2023-05-18T13:14:18;8.80;;;4.30;;
32038;SDS011;18549;42.286;22.688;2023-05-18T13:16:48;9.93;;;4.80;;
32038;SDS011;18549;42.286;22.688;2023-05-18T13:19:17;7.43;;;4.87;;
32038;SDS011;18549;42.286;22.688;2023-05-18T13:21:44;7.83;;;5.00;;
32038;SDS011;18549;42.286;22.688;2023-05-18T13:24:11;4.63;;;4.13;;
32038;SDS011;18549;42.286;22.688;2023-05-18T13:26:38;8.77;;;4.63;;
32038;SDS011;18549;42.286;22.688;2023-05-18T13:29:05;7.87;;;5.82;;
32038;SDS011;18549;42.286;22.688;2023-05-18T13:31:32;9.88;;;5.00;;
32038;SDS011;18549;42.286;22.688;2023-05-18T13:34:00;13.70;;;6.87;;
32038;SDS011;18549;42.286;22.688;2023-05-18T13:36:28;8.90;;;6.10;;
32038;SDS011;18549;42.286;22.688;2023-05-18T13:38:56;9.33;;;7.57;;
32038;SDS011;18549;42.286;22.688;2023-05-18T13:41:23;8.27;;;5.30;;
32038;SDS011;18549;42.286;22.688;2023-05-18T13:43:50;8.20;;;5.57;;
32038;SDS011;18549;42.286;22.688;2023-05-18T13:46:17;9.03;;;5.70;;
32038;SDS011;18549;42.286;22.688;2023-05-18T13:48:44;11.10;;;5.97;;
32038;SDS011;18549;42.286;22.688;2023-05-18T13:51:10;7.10;;;5.10;;
32038;SDS011;18549;42.286;22.688;2023-05-18T13:53:38;8.87;;;5.40;;
32038;SDS011;18549;42.286;22.688;2023-05-18T13:56:05;14.80;;;6.53;;
32038;SDS011;18549;42.286;22.688;2023-05-18T13:58:32;21.57;;;7.03;;
32038;SDS011;18549;42.286;22.688;2023-05-18T14:01:00;17.10;;;5.37;;
32038;SDS011;18549;42.286;22.688;2023-05-18T14:03:28;16.67;;;5.27;;
32038;SDS011;18549;42.286;22.688;2023-05-18T14:05:57;11.10;;;6.33;;
32038;SDS011;18549;42.286;22.688;2023-05-18T14:08:24;10.60;;;6.60;;
32038;SDS011;18549;42.286;22.688;2023-05-18T14:10:52;16.00;;;8.53;;
32038;SDS011;18549;42.286;22.688;2023-05-18T14:13:19;13.30;;;9.33;;
32038;SDS011;18549;42.286;22.688;2023-05-18T14:15:45;14.77;;;8.77;;
32038;SDS011;18549;42.286;22.688;2023-05-18T14:18:12;15.47;;;10.33;;
32038;SDS011;18549;42.286;22.688;2023-05-18T14:20:40;18.43;;;8.30;;
32038;SDS011;18549;42.286;22.688;2023-05-18T14:23:07;12.23;;;8.67;;
32038;SDS011;18549;42.286;22.688;2023-05-18T14:25:33;16.10;;;10.37;;
32038;SDS011;18549;42.286;22.688;2023-05-18T14:28:02;21.33;;;9.63;;
32038;SDS011;18549;42.286;22.688;2023-05-18T14:30:29;16.50;;;7.40;;
32038;SDS011;18549;42.286;22.688;2023-05-18T14:32:55;16.43;;;8.77;;
32038;SDS011;18549;42.286;22.688;2023-05-18T14:35:22;26.48;;;8.98;;
32038;SDS011;18549;42.286;22.688;2023-05-18T14:37:49;11.73;;;9.10;;
32038;SDS011;18549;42.286;22.688;2023-05-18T14:40:15;17.03;;;10.90;;